Roth, North Dakota
Current Conditions -  °F | °C
As of 2:58 PM on Friday 24 Oct 2014 (Local Time) from KMIB Reporting Station
Clear Clear  
Wind Chill: 18°   Ceiling: Unl
Heat Index: 18°   Visibility: 10mi
Dew Point: -1°   Wind: 28mph
Humidity: 28%   Direction: 280°W
Pressure: 29.82"   Gusts: 36mph
Location:  48.9505°N, 100.734°W
Report Text: KMIB 241958Z AUTO 28024G31KT 10SM CLR 18/M01 A2982 RMK AO2 PK WND 29037/12 SLP105 T01811007 $
Loading
Personal Weather Stations






























Interactive Weather Map
Tropical Storm Tracking
New forecast layout! Learn more

10-Day Weather Forecast

Advertisements
Track Severe Weather on mobile